sensor_id;sensor_type;location;lat;lon;timestamp;P1;durP1;ratioP1;P2;durP2;ratioP2
60468;SDS011;46316;47.582;10.238;2022-10-15T00:01:09;1.80;;;1.50;;
60468;SDS011;46316;47.582;10.238;2022-10-15T00:03:35;2.85;;;2.05;;
60468;SDS011;46316;47.582;10.238;2022-10-15T00:06:03;2.78;;;1.80;;
60468;SDS011;46316;47.582;10.238;2022-10-15T00:08:33;3.67;;;1.90;;
60468;SDS011;46316;47.582;10.238;2022-10-15T00:11:18;2.05;;;1.77;;
60468;SDS011;46316;47.582;10.238;2022-10-15T00:13:51;2.92;;;1.48;;
60468;SDS011;46316;47.582;10.238;2022-10-15T00:16:19;1.70;;;1.60;;
60468;SDS011;46316;47.582;10.238;2022-10-15T00:18:47;1.98;;;1.50;;
60468;SDS011;46316;47.582;10.238;2022-10-15T00:21:14;17.23;;;3.47;;
60468;SDS011;46316;47.582;10.238;2022-10-15T00:23:42;2.28;;;1.77;;
60468;SDS011;46316;47.582;10.238;2022-10-15T00:26:12;1.35;;;1.25;;
60468;SDS011;46316;47.582;10.238;2022-10-15T00:28:43;2.30;;;1.50;;
60468;SDS011;46316;47.582;10.238;2022-10-15T00:31:09;2.08;;;1.30;;
60468;SDS011;46316;47.582;10.238;2022-10-15T00:36:06;1.27;;;0.95;;
60468;SDS011;46316;47.582;10.238;2022-10-15T00:38:40;1.63;;;0.80;;
60468;SDS011;46316;47.582;10.238;2022-10-15T00:41:07;0.98;;;0.73;;
60468;SDS011;46316;47.582;10.238;2022-10-15T00:43:47;1.83;;;0.82;;
60468;SDS011;46316;47.582;10.238;2022-10-15T00:49:33;1.90;;;0.50;;
60468;SDS011;46316;47.582;10.238;2022-10-15T00:51:46;0.95;;;0.73;;
60468;SDS011;46316;47.582;10.238;2022-10-15T00:54:16;1.70;;;0.93;;
60468;SDS011;46316;47.582;10.238;2022-10-15T00:56:44;3.35;;;0.70;;
60468;SDS011;46316;47.582;10.238;2022-10-15T00:59:10;1.50;;;0.70;;
60468;SDS011;46316;47.582;10.238;2022-10-15T01:01:38;2.20;;;0.65;;
60468;SDS011;46316;47.582;10.238;2022-10-15T01:04:04;0.60;;;0.60;;
60468;SDS011;46316;47.582;10.238;2022-10-15T01:06:31;0.85;;;0.70;;
60468;SDS011;46316;47.582;10.238;2022-10-15T01:08:57;1.63;;;0.77;;
60468;SDS011;46316;47.582;10.238;2022-10-15T01:11:44;1.25;;;0.80;;
60468;SDS011;46316;47.582;10.238;2022-10-15T01:17:08;1.98;;;0.80;;
60468;SDS011;46316;47.582;10.238;2022-10-15T01:25:44;3.63;;;0.80;;
60468;SDS011;46316;47.582;10.238;2022-10-15T01:31:43;1.90;;;0.57;;
60468;SDS011;46316;47.582;10.238;2022-10-15T01:34:52;1.55;;;0.50;;
60468;SDS011;46316;47.582;10.238;2022-10-15T01:42:45;0.63;;;0.60;;
60468;SDS011;46316;47.582;10.238;2022-10-15T01:45:21;1.23;;;0.43;;
60468;SDS011;46316;47.582;10.238;2022-10-15T01:47:54;1.10;;;0.60;;
60468;SDS011;46316;47.582;10.238;2022-10-15T01:50:22;2.17;;;0.57;;
60468;SDS011;46316;47.582;10.238;2022-10-15T01:52:51;0.63;;;0.28;;
60468;SDS011;46316;47.582;10.238;2022-10-15T01:55:20;2.38;;;0.40;;
60468;SDS011;46316;47.582;10.238;2022-10-15T01:57:48;0.45;;;0.40;;
60468;SDS011;46316;47.582;10.238;2022-10-15T02:00:14;0.20;;;0.20;;
60468;SDS011;46316;47.582;10.238;2022-10-15T02:02:40;1.52;;;0.40;;
60468;SDS011;46316;47.582;10.238;2022-10-15T02:05:07;0.20;;;0.20;;
60468;SDS011;46316;47.582;10.238;2022-10-15T02:10:25;0.30;;;0.30;;
60468;SDS011;46316;47.582;10.238;2022-10-15T02:13:01;0.30;;;0.30;;
60468;SDS011;46316;47.582;10.238;2022-10-15T02:15:34;0.30;;;0.30;;
60468;SDS011;46316;47.582;10.238;2022-10-15T02:21:21;0.35;;;0.20;;
60468;SDS011;46316;47.582;10.238;2022-10-15T02:23:58;0.38;;;0.20;;
60468;SDS011;46316;47.582;10.238;2022-10-15T02:26:34;0.30;;;0.30;;
60468;SDS011;46316;47.582;10.238;2022-10-15T02:29:00;0.20;;;0.20;;
60468;SDS011;46316;47.582;10.238;2022-10-15T02:31:29;0.30;;;0.30;;
60468;SDS011;46316;47.582;10.238;2022-10-15T02:33:59;0.77;;;0.30;;
60468;SDS011;46316;47.582;10.238;2022-10-15T02:36:28;0.30;;;0.30;;
60468;SDS011;46316;47.582;10.238;2022-10-15T02:38:54;2.72;;;0.17;;
60468;SDS011;46316;47.582;10.238;2022-10-15T02:41:22;0.65;;;0.20;;
60468;SDS011;46316;47.582;10.238;2022-10-15T02:43:48;0.20;;;0.20;;
60468;SDS011;46316;47.582;10.238;2022-10-15T02:46:13;0.82;;;0.28;;
60468;SDS011;46316;47.582;10.238;2022-10-15T02:48:41;0.38;;;0.38;;
60468;SDS011;46316;47.582;10.238;2022-10-15T02:51:06;0.77;;;0.40;;
60468;SDS011;46316;47.582;10.238;2022-10-15T02:53:32;0.38;;;0.30;;
60468;SDS011;46316;47.582;10.238;2022-10-15T02:55:58;1.83;;;0.73;;
60468;SDS011;46316;47.582;10.238;2022-10-15T02:58:23;0.65;;;0.20;;
60468;SDS011;46316;47.582;10.238;2022-10-15T03:00:50;0.30;;;0.30;;
60468;SDS011;46316;47.582;10.238;2022-10-15T03:03:15;0.95;;;0.30;;
60468;SDS011;46316;47.582;10.238;2022-10-15T03:05:41;0.45;;;0.13;;
60468;SDS011;46316;47.582;10.238;2022-10-15T03:08:07;0.55;;;0.10;;
60468;SDS011;46316;47.582;10.238;2022-10-15T03:10:32;0.80;;;0.30;;
60468;SDS011;46316;47.582;10.238;2022-10-15T03:13:02;0.73;;;0.13;;
60468;SDS011;46316;47.582;10.238;2022-10-15T03:15:28;0.55;;;0.40;;
60468;SDS011;46316;47.582;10.238;2022-10-15T03:17:55;0.20;;;0.20;;
60468;SDS011;46316;47.582;10.238;2022-10-15T03:20:21;1.02;;;0.43;;
60468;SDS011;46316;47.582;10.238;2022-10-15T03:22:46;0.47;;;0.35;;
60468;SDS011;46316;47.582;10.238;2022-10-15T03:25:12;0.40;;;0.40;;
60468;SDS011;46316;47.582;10.238;2022-10-15T03:27:38;0.20;;;0.20;;
60468;SDS011;46316;47.582;10.238;2022-10-15T03:30:03;0.60;;;0.30;;
60468;SDS011;46316;47.582;10.238;2022-10-15T03:32:29;1.15;;;0.22;;
60468;SDS011;46316;47.582;10.238;2022-10-15T03:34:55;1.88;;;0.35;;
60468;SDS011;46316;47.582;10.238;2022-10-15T03:37:20;0.15;;;0.15;;
60468;SDS011;46316;47.582;10.238;2022-10-15T03:39:46;0.30;;;0.30;;
60468;SDS011;46316;47.582;10.238;2022-10-15T03:42:12;1.20;;;0.35;;
60468;SDS011;46316;47.582;10.238;2022-10-15T03:44:37;1.05;;;0.40;;
60468;SDS011;46316;47.582;10.238;2022-10-15T03:47:03;0.47;;;0.47;;
60468;SDS011;46316;47.582;10.238;2022-10-15T03:49:28;0.30;;;0.30;;
60468;SDS011;46316;47.582;10.238;2022-10-15T03:51:54;0.35;;;0.35;;
60468;SDS011;46316;47.582;10.238;2022-10-15T03:54:19;0.20;;;0.20;;
60468;SDS011;46316;47.582;10.238;2022-10-15T03:56:45;1.70;;;0.50;;
60468;SDS011;46316;47.582;10.238;2022-10-15T03:59:10;0.70;;;0.30;;
60468;SDS011;46316;47.582;10.238;2022-10-15T04:01:36;0.65;;;0.32;;
60468;SDS011;46316;47.582;10.238;2022-10-15T04:04:02;0.28;;;0.22;;
60468;SDS011;46316;47.582;10.238;2022-10-15T04:06:27;0.30;;;0.30;;
60468;SDS011;46316;47.582;10.238;2022-10-15T04:08:53;2.47;;;0.65;;
60468;SDS011;46316;47.582;10.238;2022-10-15T04:11:18;0.30;;;0.20;;
60468;SDS011;46316;47.582;10.238;2022-10-15T04:13:47;0.30;;;0.30;;
60468;SDS011;46316;47.582;10.238;2022-10-15T04:16:13;0.55;;;0.50;;
60468;SDS011;46316;47.582;10.238;2022-10-15T04:18:39;1.92;;;0.40;;
60468;SDS011;46316;47.582;10.238;2022-10-15T04:21:04;0.95;;;0.40;;
60468;SDS011;46316;47.582;10.238;2022-10-15T04:23:30;1.30;;;0.30;;
60468;SDS011;46316;47.582;10.238;2022-10-15T04:25:58;1.13;;;0.20;;
60468;SDS011;46316;47.582;10.238;2022-10-15T04:28:25;0.28;;;0.22;;
60468;SDS011;46316;47.582;10.238;2022-10-15T04:30:52;0.47;;;0.30;;
60468;SDS011;46316;47.582;10.238;2022-10-15T04:35:46;0.35;;;0.35;;
60468;SDS011;46316;47.582;10.238;2022-10-15T04:38:11;0.85;;;0.30;;
60468;SDS011;46316;47.582;10.238;2022-10-15T04:40:37;0.75;;;0.43;;
60468;SDS011;46316;47.582;10.238;2022-10-15T04:43:05;0.30;;;0.30;;
60468;SDS011;46316;47.582;10.238;2022-10-15T04:45:30;0.30;;;0.28;;
60468;SDS011;46316;47.582;10.238;2022-10-15T04:47:57;0.22;;;0.22;;
60468;SDS011;46316;47.582;10.238;2022-10-15T04:50:22;0.40;;;0.22;;
60468;SDS011;46316;47.582;10.238;2022-10-15T04:52:48;2.10;;;0.35;;
60468;SDS011;46316;47.582;10.238;2022-10-15T04:55:13;0.68;;;0.35;;
60468;SDS011;46316;47.582;10.238;2022-10-15T04:57:39;1.20;;;0.40;;
60468;SDS011;46316;47.582;10.238;2022-10-15T05:00:04;0.75;;;0.60;;
60468;SDS011;46316;47.582;10.238;2022-10-15T05:02:30;0.60;;;0.60;;
60468;SDS011;46316;47.582;10.238;2022-10-15T05:04:57;0.75;;;0.55;;
60468;SDS011;46316;47.582;10.238;2022-10-15T05:07:22;0.95;;;0.43;;
60468;SDS011;46316;47.582;10.238;2022-10-15T05:09:48;1.20;;;0.70;;
60468;SDS011;46316;47.582;10.238;2022-10-15T05:12:13;0.50;;;0.50;;
60468;SDS011;46316;47.582;10.238;2022-10-15T05:14:39;1.20;;;1.10;;
60468;SDS011;46316;47.582;10.238;2022-10-15T05:17:05;2.53;;;1.65;;
60468;SDS011;46316;47.582;10.238;2022-10-15T05:19:31;2.60;;;1.52;;
60468;SDS011;46316;47.582;10.238;2022-10-15T05:21:56;1.10;;;1.00;;
60468;SDS011;46316;47.582;10.238;2022-10-15T05:24:22;1.00;;;0.80;;
60468;SDS011;46316;47.582;10.238;2022-10-15T05:26:47;2.92;;;0.70;;
60468;SDS011;46316;47.582;10.238;2022-10-15T05:29:13;0.63;;;0.38;;
60468;SDS011;46316;47.582;10.238;2022-10-15T05:31:38;0.57;;;0.57;;
60468;SDS011;46316;47.582;10.238;2022-10-15T05:34:05;0.73;;;0.40;;
60468;SDS011;46316;47.582;10.238;2022-10-15T05:36:32;0.40;;;0.40;;
60468;SDS011;46316;47.582;10.238;2022-10-15T05:38:58;1.55;;;0.35;;
60468;SDS011;46316;47.582;10.238;2022-10-15T05:41:25;0.60;;;0.50;;
60468;SDS011;46316;47.582;10.238;2022-10-15T05:43:52;0.90;;;0.65;;
60468;SDS011;46316;47.582;10.238;2022-10-15T05:46:19;0.65;;;0.40;;
60468;SDS011;46316;47.582;10.238;2022-10-15T05:48:48;0.50;;;0.50;;
60468;SDS011;46316;47.582;10.238;2022-10-15T05:51:18;0.55;;;0.50;;
60468;SDS011;46316;47.582;10.238;2022-10-15T05:56:17;1.17;;;0.60;;
60468;SDS011;46316;47.582;10.238;2022-10-15T05:58:43;0.40;;;0.40;;
60468;SDS011;46316;47.582;10.238;2022-10-15T06:01:10;0.45;;;0.45;;
60468;SDS011;46316;47.582;10.238;2022-10-15T06:03:37;2.55;;;0.60;;
60468;SDS011;46316;47.582;10.238;2022-10-15T06:06:03;0.70;;;0.60;;
60468;SDS011;46316;47.582;10.238;2022-10-15T06:08:36;1.08;;;0.60;;
60468;SDS011;46316;47.582;10.238;2022-10-15T06:11:02;2.58;;;0.55;;
60468;SDS011;46316;47.582;10.238;2022-10-15T06:13:28;0.98;;;0.70;;
60468;SDS011;46316;47.582;10.238;2022-10-15T06:15:54;0.40;;;0.40;;
60468;SDS011;46316;47.582;10.238;2022-10-15T06:18:19;1.05;;;0.95;;
60468;SDS011;46316;47.582;10.238;2022-10-15T06:20:49;1.50;;;0.90;;
60468;SDS011;46316;47.582;10.238;2022-10-15T06:23:16;1.52;;;0.88;;
60468;SDS011;46316;47.582;10.238;2022-10-15T06:25:42;1.05;;;0.60;;
60468;SDS011;46316;47.582;10.238;2022-10-15T06:28:07;2.47;;;0.60;;
60468;SDS011;46316;47.582;10.238;2022-10-15T06:30:33;1.25;;;0.68;;
60468;SDS011;46316;47.582;10.238;2022-10-15T06:32:59;1.15;;;0.90;;
60468;SDS011;46316;47.582;10.238;2022-10-15T06:35:25;1.17;;;1.13;;
60468;SDS011;46316;47.582;10.238;2022-10-15T06:37:54;1.30;;;1.00;;
60468;SDS011;46316;47.582;10.238;2022-10-15T06:40:20;3.90;;;0.73;;
60468;SDS011;46316;47.582;10.238;2022-10-15T06:42:45;1.48;;;1.20;;
60468;SDS011;46316;47.582;10.238;2022-10-15T06:45:11;1.80;;;1.45;;
60468;SDS011;46316;47.582;10.238;2022-10-15T06:47:38;2.38;;;0.80;;
60468;SDS011;46316;47.582;10.238;2022-10-15T06:50:05;1.10;;;0.80;;
60468;SDS011;46316;47.582;10.238;2022-10-15T06:52:31;0.80;;;0.80;;
60468;SDS011;46316;47.582;10.238;2022-10-15T06:54:57;1.00;;;0.90;;
60468;SDS011;46316;47.582;10.238;2022-10-15T06:57:23;2.92;;;2.63;;
60468;SDS011;46316;47.582;10.238;2022-10-15T06:59:51;2.75;;;2.40;;
60468;SDS011;46316;47.582;10.238;2022-10-15T07:02:17;2.00;;;1.77;;
60468;SDS011;46316;47.582;10.238;2022-10-15T07:04:43;1.50;;;1.40;;
60468;SDS011;46316;47.582;10.238;2022-10-15T07:07:09;1.63;;;1.48;;
60468;SDS011;46316;47.582;10.238;2022-10-15T07:09:35;2.38;;;2.15;;
60468;SDS011;46316;47.582;10.238;2022-10-15T07:12:01;2.47;;;2.28;;
60468;SDS011;46316;47.582;10.238;2022-10-15T07:14:26;2.55;;;1.85;;
60468;SDS011;46316;47.582;10.238;2022-10-15T07:16:52;3.63;;;3.30;;
60468;SDS011;46316;47.582;10.238;2022-10-15T07:19:17;1.38;;;1.30;;
60468;SDS011;46316;47.582;10.238;2022-10-15T07:21:43;1.25;;;1.15;;
60468;SDS011;46316;47.582;10.238;2022-10-15T07:24:09;1.70;;;1.60;;
60468;SDS011;46316;47.582;10.238;2022-10-15T07:26:34;1.15;;;1.05;;
60468;SDS011;46316;47.582;10.238;2022-10-15T07:29:00;1.10;;;1.10;;
60468;SDS011;46316;47.582;10.238;2022-10-15T07:31:26;2.65;;;1.90;;
60468;SDS011;46316;47.582;10.238;2022-10-15T07:33:51;2.35;;;2.22;;
60468;SDS011;46316;47.582;10.238;2022-10-15T07:36:17;2.05;;;1.30;;
60468;SDS011;46316;47.582;10.238;2022-10-15T07:38:44;0.80;;;0.80;;
60468;SDS011;46316;47.582;10.238;2022-10-15T07:41:10;1.08;;;0.63;;
60468;SDS011;46316;47.582;10.238;2022-10-15T07:43:36;0.88;;;0.50;;
60468;SDS011;46316;47.582;10.238;2022-10-15T07:46:02;2.58;;;0.75;;
60468;SDS011;46316;47.582;10.238;2022-10-15T07:48:28;0.60;;;0.60;;
60468;SDS011;46316;47.582;10.238;2022-10-15T07:50:55;1.25;;;1.15;;
60468;SDS011;46316;47.582;10.238;2022-10-15T07:53:21;4.32;;;2.30;;
60468;SDS011;46316;47.582;10.238;2022-10-15T07:55:47;1.40;;;1.30;;
60468;SDS011;46316;47.582;10.238;2022-10-15T07:58:12;1.60;;;1.20;;
60468;SDS011;46316;47.582;10.238;2022-10-15T08:00:38;3.75;;;2.25;;
60468;SDS011;46316;47.582;10.238;2022-10-15T08:03:03;1.65;;;1.52;;
60468;SDS011;46316;47.582;10.238;2022-10-15T08:05:29;1.38;;;1.05;;
60468;SDS011;46316;47.582;10.238;2022-10-15T08:07:55;2.42;;;1.58;;
60468;SDS011;46316;47.582;10.238;2022-10-15T08:10:20;1.00;;;0.88;;
60468;SDS011;46316;47.582;10.238;2022-10-15T08:12:46;3.72;;;1.00;;
60468;SDS011;46316;47.582;10.238;2022-10-15T08:15:12;0.80;;;0.80;;
60468;SDS011;46316;47.582;10.238;2022-10-15T08:17:37;0.75;;;0.75;;
60468;SDS011;46316;47.582;10.238;2022-10-15T08:20:03;3.30;;;0.60;;
60468;SDS011;46316;47.582;10.238;2022-10-15T08:22:29;4.22;;;1.10;;
60468;SDS011;46316;47.582;10.238;2022-10-15T08:24:55;1.90;;;0.70;;
60468;SDS011;46316;47.582;10.238;2022-10-15T08:27:21;3.15;;;0.80;;
60468;SDS011;46316;47.582;10.238;2022-10-15T08:29:46;2.60;;;1.00;;
60468;SDS011;46316;47.582;10.238;2022-10-15T08:32:12;1.92;;;0.73;;
60468;SDS011;46316;47.582;10.238;2022-10-15T08:34:37;3.42;;;1.10;;
60468;SDS011;46316;47.582;10.238;2022-10-15T08:37:03;1.88;;;0.90;;
60468;SDS011;46316;47.582;10.238;2022-10-15T08:39:29;1.80;;;1.55;;
60468;SDS011;46316;47.582;10.238;2022-10-15T08:41:58;5.13;;;2.40;;
60468;SDS011;46316;47.582;10.238;2022-10-15T08:44:31;1.48;;;1.35;;
60468;SDS011;46316;47.582;10.238;2022-10-15T08:47:14;1.75;;;1.50;;
60468;SDS011;46316;47.582;10.238;2022-10-15T08:52:20;1.38;;;1.20;;
60468;SDS011;46316;47.582;10.238;2022-10-15T08:54:51;1.23;;;1.13;;
60468;SDS011;46316;47.582;10.238;2022-10-15T08:57:40;2.05;;;0.77;;
60468;SDS011;46316;47.582;10.238;2022-10-15T09:02:50;1.02;;;1.00;;
60468;SDS011;46316;47.582;10.238;2022-10-15T09:10:46;29.30;;;23.60;;
60468;SDS011;46316;47.582;10.238;2022-10-15T09:15:50;23.85;;;20.48;;
60468;SDS011;46316;47.582;10.238;2022-10-15T09:18:21;15.48;;;13.27;;
60468;SDS011;46316;47.582;10.238;2022-10-15T09:20:49;10.75;;;7.68;;
60468;SDS011;46316;47.582;10.238;2022-10-15T09:23:16;5.72;;;5.22;;
60468;SDS011;46316;47.582;10.238;2022-10-15T09:25:46;1.63;;;1.52;;
60468;SDS011;46316;47.582;10.238;2022-10-15T09:28:18;2.42;;;1.50;;
60468;SDS011;46316;47.582;10.238;2022-10-15T09:30:54;0.82;;;0.65;;
60468;SDS011;46316;47.582;10.238;2022-10-15T09:33:37;2.88;;;1.13;;
60468;SDS011;46316;47.582;10.238;2022-10-15T09:38:57;3.45;;;1.42;;
60468;SDS011;46316;47.582;10.238;2022-10-15T09:44:37;1.60;;;1.40;;
60468;SDS011;46316;47.582;10.238;2022-10-15T09:47:15;1.77;;;1.20;;
60468;SDS011;46316;47.582;10.238;2022-10-15T09:49:49;1.00;;;0.80;;
60468;SDS011;46316;47.582;10.238;2022-10-15T09:52:24;0.95;;;0.80;;
60468;SDS011;46316;47.582;10.238;2022-10-15T09:55:22;1.58;;;0.60;;
60468;SDS011;46316;47.582;10.238;2022-10-15T09:57:50;0.50;;;0.50;;
60468;SDS011;46316;47.582;10.238;2022-10-15T10:00:19;1.90;;;0.60;;
60468;SDS011;46316;47.582;10.238;2022-10-15T10:02:57;0.88;;;0.60;;
60468;SDS011;46316;47.582;10.238;2022-10-15T10:05:31;2.50;;;0.60;;
60468;SDS011;46316;47.582;10.238;2022-10-15T10:08:19;1.30;;;0.32;;
60468;SDS011;46316;47.582;10.238;2022-10-15T10:10:53;0.40;;;0.40;;
60468;SDS011;46316;47.582;10.238;2022-10-15T10:13:31;0.88;;;0.68;;
60468;SDS011;46316;47.582;10.238;2022-10-15T10:16:01;0.40;;;0.40;;
60468;SDS011;46316;47.582;10.238;2022-10-15T10:18:33;0.73;;;0.63;;
60468;SDS011;46316;47.582;10.238;2022-10-15T10:21:02;1.30;;;0.40;;
60468;SDS011;46316;47.582;10.238;2022-10-15T10:23:34;1.40;;;1.30;;
60468;SDS011;46316;47.582;10.238;2022-10-15T10:26:03;0.93;;;0.90;;
60468;SDS011;46316;47.582;10.238;2022-10-15T10:28:32;2.30;;;0.60;;
60468;SDS011;46316;47.582;10.238;2022-10-15T10:31:04;2.10;;;1.90;;
60468;SDS011;46316;47.582;10.238;2022-10-15T10:36:04;4.75;;;1.25;;
60468;SDS011;46316;47.582;10.238;2022-10-15T10:38:35;0.70;;;0.70;;
60468;SDS011;46316;47.582;10.238;2022-10-15T10:41:04;1.85;;;0.32;;
60468;SDS011;46316;47.582;10.238;2022-10-15T10:43:34;2.08;;;0.32;;
60468;SDS011;46316;47.582;10.238;2022-10-15T10:46:08;0.60;;;0.60;;
60468;SDS011;46316;47.582;10.238;2022-10-15T10:48:46;1.48;;;0.60;;
60468;SDS011;46316;47.582;10.238;2022-10-15T10:51:15;2.38;;;1.08;;
60468;SDS011;46316;47.582;10.238;2022-10-15T10:53:48;0.30;;;0.30;;
60468;SDS011;46316;47.582;10.238;2022-10-15T10:56:15;1.42;;;0.70;;
60468;SDS011;46316;47.582;10.238;2022-10-15T10:58:42;0.80;;;0.80;;
60468;SDS011;46316;47.582;10.238;2022-10-15T11:01:11;0.30;;;0.30;;
60468;SDS011;46316;47.582;10.238;2022-10-15T11:03:39;1.65;;;0.40;;
60468;SDS011;46316;47.582;10.238;2022-10-15T11:11:51;0.40;;;0.40;;
60468;SDS011;46316;47.582;10.238;2022-10-15T11:20:02;0.85;;;0.55;;
60468;SDS011;46316;47.582;10.238;2022-10-15T11:22:56;0.30;;;0.30;;
60468;SDS011;46316;47.582;10.238;2022-10-15T11:25:48;1.02;;;0.70;;
60468;SDS011;46316;47.582;10.238;2022-10-15T11:28:22;0.40;;;0.40;;
60468;SDS011;46316;47.582;10.238;2022-10-15T11:33:59;2.03;;;0.55;;
60468;SDS011;46316;47.582;10.238;2022-10-15T11:36:36;0.60;;;0.40;;
60468;SDS011;46316;47.582;10.238;2022-10-15T11:52:46;0.40;;;0.40;;
60468;SDS011;46316;47.582;10.238;2022-10-15T11:57:53;0.60;;;0.60;;
60468;SDS011;46316;47.582;10.238;2022-10-15T12:00:31;0.35;;;0.35;;
60468;SDS011;46316;47.582;10.238;2022-10-15T12:03:22;0.47;;;0.40;;
60468;SDS011;46316;47.582;10.238;2022-10-15T12:05:58;1.38;;;0.60;;
60468;SDS011;46316;47.582;10.238;2022-10-15T12:08:30;2.15;;;0.55;;
60468;SDS011;46316;47.582;10.238;2022-10-15T12:14:10;1.08;;;0.50;;
60468;SDS011;46316;47.582;10.238;2022-10-15T12:16:45;0.70;;;0.70;;
60468;SDS011;46316;47.582;10.238;2022-10-15T12:19:35;0.50;;;0.45;;
60468;SDS011;46316;47.582;10.238;2022-10-15T12:22:09;1.23;;;0.80;;
60468;SDS011;46316;47.582;10.238;2022-10-15T12:27:20;0.45;;;0.45;;
60468;SDS011;46316;47.582;10.238;2022-10-15T12:32:27;1.02;;;0.50;;
60468;SDS011;46316;47.582;10.238;2022-10-15T12:37:39;1.15;;;0.63;;
60468;SDS011;46316;47.582;10.238;2022-10-15T12:40:28;0.50;;;0.50;;
60468;SDS011;46316;47.582;10.238;2022-10-15T12:45:24;0.63;;;0.63;;
60468;SDS011;46316;47.582;10.238;2022-10-15T12:50:33;0.88;;;0.50;;
60468;SDS011;46316;47.582;10.238;2022-10-15T12:53:02;1.67;;;0.93;;
60468;SDS011;46316;47.582;10.238;2022-10-15T12:55:46;4.13;;;2.63;;
60468;SDS011;46316;47.582;10.238;2022-10-15T12:58:37;0.65;;;0.60;;
60468;SDS011;46316;47.582;10.238;2022-10-15T13:01:05;1.27;;;0.70;;
60468;SDS011;46316;47.582;10.238;2022-10-15T13:03:37;3.25;;;0.45;;
60468;SDS011;46316;47.582;10.238;2022-10-15T13:11:26;0.40;;;0.40;;
60468;SDS011;46316;47.582;10.238;2022-10-15T13:14:02;0.70;;;0.70;;
60468;SDS011;46316;47.582;10.238;2022-10-15T13:16:52;2.45;;;0.80;;
60468;SDS011;46316;47.582;10.238;2022-10-15T13:19:18;0.70;;;0.55;;
60468;SDS011;46316;47.582;10.238;2022-10-15T13:21:51;1.27;;;0.70;;
60468;SDS011;46316;47.582;10.238;2022-10-15T13:24:20;2.60;;;0.63;;
60468;SDS011;46316;47.582;10.238;2022-10-15T13:26:48;2.50;;;0.70;;
60468;SDS011;46316;47.582;10.238;2022-10-15T13:29:14;1.00;;;0.50;;
60468;SDS011;46316;47.582;10.238;2022-10-15T13:31:42;2.85;;;1.05;;
60468;SDS011;46316;47.582;10.238;2022-10-15T13:36:49;1.83;;;1.10;;
60468;SDS011;46316;47.582;10.238;2022-10-15T13:39:19;1.00;;;0.80;;
60468;SDS011;46316;47.582;10.238;2022-10-15T13:42:17;1.67;;;0.88;;
60468;SDS011;46316;47.582;10.238;2022-10-15T13:44:57;1.00;;;0.80;;
60468;SDS011;46316;47.582;10.238;2022-10-15T13:47:31;0.52;;;0.52;;
60468;SDS011;46316;47.582;10.238;2022-10-15T13:52:44;0.80;;;0.80;;
60468;SDS011;46316;47.582;10.238;2022-10-15T13:55:33;2.20;;;0.80;;
60468;SDS011;46316;47.582;10.238;2022-10-15T13:58:04;2.60;;;1.45;;
60468;SDS011;46316;47.582;10.238;2022-10-15T14:03:33;2.58;;;1.00;;
60468;SDS011;46316;47.582;10.238;2022-10-15T14:08:52;1.65;;;1.17;;
60468;SDS011;46316;47.582;10.238;2022-10-15T14:11:22;4.88;;;3.58;;
60468;SDS011;46316;47.582;10.238;2022-10-15T14:13:49;1.15;;;0.90;;
60468;SDS011;46316;47.582;10.238;2022-10-15T14:16:26;1.35;;;0.93;;
60468;SDS011;46316;47.582;10.238;2022-10-15T14:21:30;3.08;;;0.80;;
60468;SDS011;46316;47.582;10.238;2022-10-15T14:24:03;0.70;;;0.70;;
60468;SDS011;46316;47.582;10.238;2022-10-15T14:26:32;1.10;;;0.90;;
60468;SDS011;46316;47.582;10.238;2022-10-15T14:28:58;1.20;;;0.70;;
60468;SDS011;46316;47.582;10.238;2022-10-15T14:31:29;0.60;;;0.60;;
60468;SDS011;46316;47.582;10.238;2022-10-15T14:33:56;2.83;;;1.17;;
60468;SDS011;46316;47.582;10.238;2022-10-15T14:36:23;2.40;;;2.05;;
60468;SDS011;46316;47.582;10.238;2022-10-15T14:38:50;5.65;;;2.00;;
60468;SDS011;46316;47.582;10.238;2022-10-15T14:41:25;3.35;;;1.83;;
60468;SDS011;46316;47.582;10.238;2022-10-15T14:44:38;1.38;;;1.27;;
60468;SDS011;46316;47.582;10.238;2022-10-15T14:46:42;7.28;;;5.10;;
60468;SDS011;46316;47.582;10.238;2022-10-15T14:49:32;4.22;;;3.03;;
60468;SDS011;46316;47.582;10.238;2022-10-15T14:51:59;6.70;;;3.88;;
60468;SDS011;46316;47.582;10.238;2022-10-15T14:54:34;2.40;;;1.60;;
60468;SDS011;46316;47.582;10.238;2022-10-15T14:57:08;1.65;;;1.30;;
60468;SDS011;46316;47.582;10.238;2022-10-15T14:59:41;2.13;;;1.83;;
60468;SDS011;46316;47.582;10.238;2022-10-15T15:02:09;2.15;;;1.40;;
60468;SDS011;46316;47.582;10.238;2022-10-15T15:04:39;5.38;;;3.00;;
60468;SDS011;46316;47.582;10.238;2022-10-15T15:07:19;5.18;;;2.40;;
60468;SDS011;46316;47.582;10.238;2022-10-15T15:09:48;7.67;;;3.27;;
60468;SDS011;46316;47.582;10.238;2022-10-15T15:12:20;6.70;;;4.20;;
60468;SDS011;46316;47.582;10.238;2022-10-15T15:14:49;7.05;;;4.90;;
60468;SDS011;46316;47.582;10.238;2022-10-15T15:17:19;5.82;;;4.00;;
60468;SDS011;46316;47.582;10.238;2022-10-15T15:19:47;2.85;;;1.80;;
60468;SDS011;46316;47.582;10.238;2022-10-15T15:22:20;2.60;;;1.90;;
60468;SDS011;46316;47.582;10.238;2022-10-15T15:24:51;2.67;;;2.10;;
60468;SDS011;46316;47.582;10.238;2022-10-15T15:27:20;4.80;;;1.95;;
60468;SDS011;46316;47.582;10.238;2022-10-15T15:29:54;2.20;;;1.73;;
60468;SDS011;46316;47.582;10.238;2022-10-15T15:32:20;2.67;;;2.17;;
60468;SDS011;46316;47.582;10.238;2022-10-15T15:34:47;1.83;;;1.35;;
60468;SDS011;46316;47.582;10.238;2022-10-15T15:37:17;1.20;;;1.10;;
60468;SDS011;46316;47.582;10.238;2022-10-15T15:39:45;2.30;;;1.00;;
60468;SDS011;46316;47.582;10.238;2022-10-15T15:42:14;1.13;;;1.02;;
60468;SDS011;46316;47.582;10.238;2022-10-15T15:44:42;0.73;;;0.73;;
60468;SDS011;46316;47.582;10.238;2022-10-15T15:47:08;3.17;;;0.90;;
60468;SDS011;46316;47.582;10.238;2022-10-15T15:49:35;1.02;;;0.80;;
60468;SDS011;46316;47.582;10.238;2022-10-15T15:52:01;3.67;;;0.93;;
60468;SDS011;46316;47.582;10.238;2022-10-15T15:54:28;2.47;;;1.00;;
60468;SDS011;46316;47.582;10.238;2022-10-15T15:56:54;2.58;;;0.77;;
60468;SDS011;46316;47.582;10.238;2022-10-15T15:59:20;1.10;;;0.90;;
60468;SDS011;46316;47.582;10.238;2022-10-15T16:01:45;1.83;;;0.75;;
60468;SDS011;46316;47.582;10.238;2022-10-15T16:04:11;1.67;;;1.00;;
60468;SDS011;46316;47.582;10.238;2022-10-15T16:06:37;0.85;;;0.80;;
60468;SDS011;46316;47.582;10.238;2022-10-15T16:09:03;1.92;;;0.98;;
60468;SDS011;46316;47.582;10.238;2022-10-15T16:11:30;1.20;;;1.10;;
60468;SDS011;46316;47.582;10.238;2022-10-15T16:13:56;1.05;;;0.80;;
60468;SDS011;46316;47.582;10.238;2022-10-15T16:16:22;1.13;;;0.90;;
60468;SDS011;46316;47.582;10.238;2022-10-15T16:18:48;6.22;;;2.47;;
60468;SDS011;46316;47.582;10.238;2022-10-15T16:21:19;4.43;;;2.97;;
60468;SDS011;46316;47.582;10.238;2022-10-15T16:23:49;2.90;;;2.20;;
60468;SDS011;46316;47.582;10.238;2022-10-15T16:26:15;3.00;;;2.38;;
60468;SDS011;46316;47.582;10.238;2022-10-15T16:28:42;1.70;;;1.60;;
60468;SDS011;46316;47.582;10.238;2022-10-15T16:31:24;4.30;;;1.73;;
60468;SDS011;46316;47.582;10.238;2022-10-15T16:33:53;2.63;;;1.67;;
60468;SDS011;46316;47.582;10.238;2022-10-15T16:36:19;2.28;;;1.73;;
60468;SDS011;46316;47.582;10.238;2022-10-15T16:38:45;3.20;;;1.90;;
60468;SDS011;46316;47.582;10.238;2022-10-15T16:41:11;2.75;;;2.47;;
60468;SDS011;46316;47.582;10.238;2022-10-15T16:43:38;4.25;;;2.90;;
60468;SDS011;46316;47.582;10.238;2022-10-15T16:46:04;3.20;;;2.67;;
60468;SDS011;46316;47.582;10.238;2022-10-15T16:48:30;3.80;;;3.50;;